createdAt,value
2018-07-17T00:00:06.581Z,20.76
2018-07-17T00:02:35.297Z,20.56
2018-07-17T00:05:04.580Z,20.54
2018-07-17T00:07:33.412Z,20.43
2018-07-17T00:10:02.223Z,20.40
2018-07-17T00:12:30.925Z,20.42
2018-07-17T00:14:59.686Z,20.33
2018-07-17T00:17:28.409Z,20.35
2018-07-17T00:19:57.126Z,20.56
2018-07-17T00:22:25.920Z,20.56
2018-07-17T00:24:54.693Z,20.50
2018-07-17T00:27:23.492Z,20.65
2018-07-17T00:29:52.298Z,20.72
2018-07-17T00:32:21.216Z,20.60
2018-07-17T00:34:49.958Z,20.56
2018-07-17T00:37:18.613Z,20.61
2018-07-17T00:39:47.470Z,20.58
2018-07-17T00:42:16.231Z,20.47
2018-07-17T00:44:44.989Z,20.42
2018-07-17T00:47:13.770Z,20.44
2018-07-17T00:49:42.529Z,20.46
2018-07-17T00:52:11.277Z,20.42
2018-07-17T00:54:39.976Z,20.34
2018-07-17T00:57:08.742Z,20.29
2018-07-17T00:59:37.538Z,20.29
2018-07-17T01:02:11.675Z,20.26
2018-07-17T01:04:45.739Z,20.24
2018-07-17T01:07:19.738Z,20.24
2018-07-17T01:09:53.830Z,20.18
2018-07-17T01:12:21.835Z,20.21
2018-07-17T01:14:53.638Z,20.28
2018-07-17T01:17:22.983Z,20.30
2018-07-17T01:19:51.781Z,20.25
2018-07-17T01:22:20.568Z,20.29
2018-07-17T01:24:49.303Z,20.24
2018-07-17T01:27:18.004Z,20.16
2018-07-17T01:29:46.665Z,20.12
2018-07-17T01:32:15.352Z,20.00
2018-07-17T01:34:44.070Z,19.97
2018-07-17T01:37:12.747Z,19.96
2018-07-17T01:39:41.409Z,20.02
2018-07-17T01:42:10.103Z,20.04
2018-07-17T01:44:39.273Z,20.00
2018-07-17T01:47:07.950Z,20.10
2018-07-17T01:49:36.740Z,19.98
2018-07-17T01:52:06.264Z,19.98
2018-07-17T01:54:35.013Z,20.01
2018-07-17T01:57:03.721Z,20.03
2018-07-17T01:59:32.452Z,20.00
2018-07-17T02:02:01.169Z,20.00
2018-07-17T02:04:30.268Z,19.94
2018-07-17T02:06:58.960Z,19.91
2018-07-17T02:09:27.920Z,19.94
2018-07-17T02:11:56.613Z,19.90
2018-07-17T02:14:25.296Z,19.94
2018-07-17T02:16:53.992Z,19.87
2018-07-17T02:19:22.684Z,19.83
2018-07-17T02:21:51.381Z,19.91
2018-07-17T02:24:20.128Z,19.90
2018-07-17T02:26:48.813Z,19.89
2018-07-17T02:29:17.497Z,19.84
2018-07-17T02:31:46.224Z,19.82
2018-07-17T02:34:15.681Z,19.85
2018-07-17T02:36:45.255Z,19.85
2018-07-17T02:39:13.925Z,19.73
2018-07-17T02:41:42.590Z,19.67
2018-07-17T02:44:12.588Z,19.67
2018-07-17T02:46:41.300Z,19.76
2018-07-17T02:49:09.989Z,19.66
2018-07-17T02:51:38.662Z,19.67
2018-07-17T02:54:07.854Z,19.62
2018-07-17T02:56:36.737Z,19.55
2018-07-17T02:59:05.459Z,19.62
2018-07-17T03:01:34.285Z,19.65
2018-07-17T03:04:02.955Z,19.72
2018-07-17T03:06:31.640Z,19.70
2018-07-17T03:09:00.345Z,19.56
2018-07-17T03:11:29.028Z,19.55
2018-07-17T03:13:57.744Z,19.51
2018-07-17T03:16:26.467Z,19.50
2018-07-17T03:18:55.113Z,19.44
2018-07-17T03:21:23.823Z,19.57
2018-07-17T03:23:52.464Z,19.56
2018-07-17T03:26:21.108Z,19.63
2018-07-17T03:28:50.638Z,19.58
2018-07-17T03:31:19.856Z,19.52
2018-07-17T03:33:48.530Z,19.66
2018-07-17T03:36:17.963Z,19.59
2018-07-17T03:38:46.635Z,19.60
2018-07-17T03:41:15.340Z,19.62
2018-07-17T03:43:45.090Z,19.75
2018-07-17T03:46:14.069Z,19.94
2018-07-17T03:48:42.745Z,19.90
2018-07-17T03:51:11.441Z,19.88
2018-07-17T03:53:41.192Z,20.10
2018-07-17T03:56:10.496Z,20.11
2018-07-17T03:58:40.182Z,19.98
2018-07-17T04:01:09.217Z,20.09
2018-07-17T04:03:38.874Z,19.83
2018-07-17T04:06:07.869Z,19.89
2018-07-17T04:08:36.660Z,19.89
2018-07-17T04:11:05.353Z,19.89
2018-07-17T04:13:34.039Z,20.03
2018-07-17T04:16:04.109Z,20.21
2018-07-17T04:18:34.393Z,19.92
2018-07-17T04:21:03.834Z,20.07
2018-07-17T04:23:32.575Z,20.14
2018-07-17T04:26:01.293Z,20.35
2018-07-17T04:28:30.022Z,20.30
2018-07-17T04:30:58.729Z,20.54
2018-07-17T04:33:27.470Z,20.39
2018-07-17T04:35:56.774Z,20.35
2018-07-17T04:38:25.659Z,20.55
2018-07-17T04:40:55.773Z,20.49
2018-07-17T04:43:25.332Z,20.39
2018-07-17T04:45:54.125Z,20.34
2018-07-17T04:48:22.896Z,20.28
2018-07-17T04:50:51.564Z,20.35
2018-07-17T04:53:20.284Z,20.45
2018-07-17T04:55:49.204Z,20.49
2018-07-17T04:58:17.922Z,20.50
2018-07-17T05:00:46.696Z,20.60
2018-07-17T05:03:16.921Z,20.80
2018-07-17T05:05:45.712Z,20.79
2018-07-17T05:08:14.425Z,20.79
2018-07-17T05:10:43.115Z,20.78
2018-07-17T05:13:11.796Z,20.81
2018-07-17T05:15:40.551Z,20.78
2018-07-17T05:18:09.238Z,20.75
2018-07-17T05:20:38.062Z,20.89
2018-07-17T05:23:06.783Z,20.99
2018-07-17T05:25:35.589Z,21.10
2018-07-17T05:28:04.343Z,21.24
2018-07-17T05:30:33.066Z,21.36
2018-07-17T05:33:01.864Z,21.34
2018-07-17T05:35:34.699Z,21.36
2018-07-17T05:38:04.004Z,21.31
2018-07-17T05:40:35.607Z,21.28
2018-07-17T05:43:04.840Z,21.49
2018-07-17T06:57:38.677Z,22.40
2018-07-17T07:00:07.520Z,22.53
2018-07-17T07:02:36.390Z,22.55
2018-07-17T07:05:05.257Z,22.60
2018-07-17T07:07:34.091Z,22.84
2018-07-17T07:10:02.935Z,23.05
2018-07-17T07:12:31.805Z,22.96
2018-07-17T07:15:00.776Z,23.01
2018-07-17T07:17:29.614Z,22.99
2018-07-17T07:19:58.361Z,22.90
2018-07-17T07:22:27.188Z,23.26
2018-07-17T07:24:57.374Z,23.13
2018-07-17T07:27:26.445Z,23.40
2018-07-17T07:29:55.343Z,23.39
2018-07-17T07:32:24.890Z,23.64
2018-07-17T07:34:53.900Z,23.68
2018-07-17T07:37:22.980Z,23.60
2018-07-17T07:39:52.623Z,23.59
2018-07-17T07:42:21.550Z,23.75
2018-07-17T07:44:50.454Z,24.00
2018-07-17T07:47:19.260Z,23.96
2018-07-17T07:49:48.169Z,23.97
2018-07-17T07:52:16.917Z,24.03
2018-07-17T07:54:45.925Z,24.29
2018-07-17T07:57:14.995Z,24.82
2018-07-17T07:59:43.964Z,24.92
2018-07-17T08:02:12.874Z,24.93
2018-07-17T08:04:42.079Z,24.92
2018-07-17T08:07:11.257Z,25.34
2018-07-17T08:09:40.276Z,25.48
2018-07-17T08:12:09.552Z,25.69
2018-07-17T08:14:38.365Z,25.74
2018-07-17T08:17:07.324Z,25.78
2018-07-17T08:19:36.097Z,25.88
2018-07-17T08:22:04.943Z,25.76
2018-07-17T08:24:33.731Z,26.06
2018-07-17T08:27:02.546Z,25.82
2018-07-17T08:29:31.332Z,26.19
2018-07-17T08:32:00.295Z,26.39
2018-07-17T08:34:29.060Z,26.51
2018-07-17T08:36:57.921Z,26.85
2018-07-17T08:39:26.656Z,26.97
2018-07-17T08:41:55.520Z,26.56
2018-07-17T08:44:24.255Z,27.06
2018-07-17T08:46:52.937Z,26.66
2018-07-17T08:49:21.720Z,26.77
2018-07-17T08:51:50.485Z,26.68
2018-07-17T08:54:19.277Z,26.93
2018-07-17T08:56:47.948Z,26.45
2018-07-17T08:59:16.695Z,26.43
2018-07-17T09:01:45.422Z,26.43
2018-07-17T09:04:14.099Z,26.48
2018-07-17T09:06:42.840Z,27.00
2018-07-17T09:09:11.571Z,27.01
2018-07-17T09:11:40.268Z,27.04
2018-07-17T09:14:08.984Z,26.79
2018-07-17T09:16:37.706Z,26.79
2018-07-17T09:19:06.485Z,26.96
2018-07-17T09:21:35.223Z,27.34
2018-07-17T09:24:03.994Z,27.58
2018-07-17T09:26:32.704Z,27.29
2018-07-17T09:29:01.591Z,27.46
2018-07-17T09:31:30.372Z,27.47
2018-07-17T09:33:59.103Z,27.34
2018-07-17T09:36:27.911Z,27.05
2018-07-17T09:38:56.738Z,27.40
2018-07-17T09:41:25.351Z,27.59
2018-07-17T09:43:54.127Z,28.31
2018-07-17T09:46:22.915Z,28.55
2018-07-17T09:48:51.660Z,28.32
2018-07-17T09:51:20.531Z,28.47
2018-07-17T09:53:49.272Z,29.15
2018-07-17T09:56:18.065Z,29.11
2018-07-17T09:58:46.855Z,29.47
2018-07-17T10:01:20.995Z,29.70
2018-07-17T10:03:49.836Z,30.08
2018-07-17T10:06:18.727Z,30.00
2018-07-17T10:08:47.522Z,30.51
2018-07-17T10:11:16.323Z,30.23
2018-07-17T10:13:47.093Z,30.60
2018-07-17T10:16:15.979Z,29.91
2018-07-17T10:18:44.804Z,29.60
2018-07-17T10:21:13.570Z,30.34
2018-07-17T10:23:42.468Z,30.49
2018-07-17T10:26:11.317Z,30.68
2018-07-17T10:28:39.998Z,30.94
2018-07-17T10:31:08.748Z,30.99
2018-07-17T10:33:37.742Z,31.12
2018-07-17T10:36:06.438Z,30.97
2018-07-17T10:38:35.103Z,31.14
2018-07-17T10:41:03.829Z,31.92
2018-07-17T10:43:32.530Z,31.92
2018-07-17T10:46:01.220Z,31.56
2018-07-17T10:48:29.939Z,31.52
2018-07-17T10:50:58.697Z,31.93
2018-07-17T10:53:27.462Z,32.35
2018-07-17T10:55:56.458Z,32.04
2018-07-17T10:58:25.169Z,32.23
2018-07-17T11:00:54.003Z,32.34
2018-07-17T11:03:22.723Z,31.67
2018-07-17T11:05:51.710Z,32.22
2018-07-17T11:08:20.634Z,32.17
2018-07-17T11:10:49.395Z,31.87
2018-07-17T11:13:18.212Z,31.70
2018-07-17T11:15:46.957Z,31.88
2018-07-17T11:18:15.760Z,31.35
2018-07-17T11:20:44.521Z,31.63
2018-07-17T11:23:13.328Z,32.23
2018-07-17T11:25:42.174Z,31.89
2018-07-17T11:28:10.953Z,32.15
2018-07-17T11:30:39.786Z,31.86
2018-07-17T11:33:08.530Z,31.50
2018-07-17T11:35:37.292Z,31.96
2018-07-17T11:38:06.051Z,31.94
2018-07-17T11:40:35.017Z,32.11
2018-07-17T11:43:03.878Z,32.03
2018-07-17T11:45:34.843Z,32.00
2018-07-17T11:48:03.594Z,32.22
2018-07-17T11:50:32.428Z,31.22
2018-07-17T11:53:01.123Z,31.63
2018-07-17T11:55:29.971Z,32.12
2018-07-17T11:57:58.650Z,32.05
2018-07-17T12:00:27.524Z,32.03
2018-07-17T12:02:56.349Z,31.79
2018-07-17T12:05:25.126Z,31.56
2018-07-17T12:07:53.800Z,31.40
2018-07-17T12:10:22.619Z,31.57
2018-07-17T12:12:51.480Z,31.51
2018-07-17T12:15:20.131Z,31.59
2018-07-17T12:17:48.899Z,31.26
2018-07-17T12:20:17.718Z,31.40
2018-07-17T12:22:46.392Z,31.42
2018-07-17T12:25:15.613Z,31.22
2018-07-17T12:27:44.264Z,31.23
2018-07-17T12:30:13.106Z,31.66
2018-07-17T12:32:41.864Z,31.84
2018-07-17T12:35:10.659Z,31.69
2018-07-17T12:37:39.417Z,32.05
2018-07-17T12:40:08.147Z,32.40
2018-07-17T12:42:36.987Z,32.57
2018-07-17T12:45:05.894Z,32.20
2018-07-17T12:47:34.634Z,31.96
2018-07-17T12:50:03.488Z,32.90
2018-07-17T12:52:32.264Z,32.70
2018-07-17T12:55:01.103Z,32.28
2018-07-17T12:57:29.814Z,32.83
2018-07-17T12:59:58.523Z,32.58
2018-07-17T13:02:27.306Z,32.43
2018-07-17T13:04:56.231Z,32.62
2018-07-17T13:07:25.045Z,32.20
2018-07-17T13:09:53.758Z,31.89
2018-07-17T13:12:22.566Z,31.63
2018-07-17T13:14:51.350Z,31.55
2018-07-17T13:17:20.124Z,32.04
2018-07-17T13:19:48.804Z,32.01
2018-07-17T13:22:17.551Z,31.70
2018-07-17T13:24:46.354Z,30.76
2018-07-17T13:27:15.224Z,30.54
2018-07-17T13:29:43.973Z,30.50
2018-07-17T13:32:12.708Z,30.52
2018-07-17T13:34:41.568Z,30.71
2018-07-17T13:37:10.505Z,30.55
2018-07-17T13:39:39.621Z,30.60
2018-07-17T13:42:08.432Z,31.11
2018-07-17T13:44:37.307Z,31.15
2018-07-17T13:47:06.110Z,31.06
2018-07-17T13:49:34.828Z,30.68
2018-07-17T13:52:03.614Z,30.61
2018-07-17T13:54:32.348Z,30.87
2018-07-17T13:57:01.161Z,30.96
2018-07-17T13:59:29.824Z,30.70
2018-07-17T14:01:58.617Z,30.82
2018-07-17T14:04:27.423Z,30.62
2018-07-17T14:06:56.199Z,31.00
2018-07-17T14:09:24.998Z,31.52
2018-07-17T14:11:53.687Z,31.29
2018-07-17T14:14:22.431Z,31.28
2018-07-17T14:16:51.365Z,31.26
2018-07-17T14:19:20.181Z,31.22
2018-07-17T14:21:49.714Z,30.74
2018-07-17T14:24:18.635Z,30.94
2018-07-17T14:26:48.101Z,30.59
2018-07-17T14:29:16.884Z,30.71
2018-07-17T14:31:46.256Z,30.48
2018-07-17T14:34:15.631Z,30.82
2018-07-17T14:36:44.588Z,30.20
2018-07-17T14:39:14.243Z,29.95
2018-07-17T14:41:43.350Z,29.77
2018-07-17T14:44:12.072Z,30.24
2018-07-17T14:46:41.024Z,30.31
2018-07-17T14:49:09.757Z,29.85
2018-07-17T14:51:38.518Z,30.15
2018-07-17T14:54:07.317Z,30.35
2018-07-17T14:56:36.212Z,30.30
2018-07-17T14:59:04.962Z,29.78
2018-07-17T15:01:33.763Z,29.62
2018-07-17T15:04:02.497Z,29.56
2018-07-17T15:06:31.322Z,29.66
2018-07-17T15:09:00.092Z,29.71
2018-07-17T15:11:28.932Z,29.63
2018-07-17T15:13:57.693Z,29.49
2018-07-17T15:16:26.529Z,29.31
2018-07-17T15:18:55.339Z,29.41
2018-07-17T15:21:24.069Z,29.20
2018-07-17T15:23:52.804Z,29.17
2018-07-17T15:26:21.530Z,29.34
2018-07-17T15:28:50.329Z,29.37
2018-07-17T15:31:19.221Z,29.43
2018-07-17T15:33:48.056Z,29.19
2018-07-17T15:36:16.893Z,28.72
2018-07-17T15:38:45.823Z,28.65
2018-07-17T15:41:14.540Z,28.56
2018-07-17T15:43:43.378Z,28.25
2018-07-17T15:46:12.111Z,28.40
2018-07-17T15:48:40.908Z,28.31
2018-07-17T15:51:09.691Z,28.29
2018-07-17T15:53:38.463Z,28.27
2018-07-17T15:56:07.264Z,28.13
2018-07-17T15:58:36.191Z,28.24
2018-07-17T16:01:04.944Z,28.06
2018-07-17T16:03:33.762Z,28.09
2018-07-17T16:06:02.542Z,28.13
2018-07-17T16:08:31.462Z,28.24
2018-07-17T16:11:00.147Z,28.02
2018-07-17T16:13:29.085Z,27.99
2018-07-17T16:15:57.715Z,27.95
2018-07-17T16:18:26.413Z,28.24
2018-07-17T16:20:55.189Z,28.05
2018-07-17T16:23:23.938Z,27.90
2018-07-17T16:25:53.049Z,27.99
2018-07-17T16:28:21.844Z,27.98
2018-07-17T16:30:50.637Z,28.09
2018-07-17T16:33:19.342Z,27.98
2018-07-17T16:35:48.130Z,27.86
2018-07-17T16:38:16.844Z,27.71
2018-07-17T16:40:45.551Z,27.74
2018-07-17T16:43:14.324Z,27.63
2018-07-17T16:45:43.104Z,27.60
2018-07-17T16:48:11.951Z,27.61
2018-07-17T16:50:40.688Z,27.67
2018-07-17T16:53:09.465Z,27.73
2018-07-17T16:55:38.342Z,27.86
2018-07-17T16:58:07.330Z,27.80
2018-07-17T17:00:36.336Z,27.69
2018-07-17T17:03:05.164Z,27.41
2018-07-17T17:05:33.946Z,27.44
2018-07-17T17:08:02.825Z,27.39
2018-07-17T17:10:31.544Z,27.16
2018-07-17T17:13:00.389Z,27.24
2018-07-17T17:15:29.452Z,27.24
2018-07-17T17:17:58.470Z,27.40
2018-07-17T17:20:27.681Z,27.65
2018-07-17T17:22:56.458Z,27.63
2018-07-17T17:25:25.703Z,27.66
2018-07-17T17:27:54.772Z,27.45
2018-07-17T17:30:23.814Z,27.27
2018-07-17T17:32:52.617Z,27.10
2018-07-17T17:35:21.404Z,27.06
2018-07-17T17:37:50.279Z,27.17
2018-07-17T17:40:19.216Z,27.20
2018-07-17T17:42:48.191Z,27.20
2018-07-17T17:45:17.043Z,26.93
2018-07-17T17:47:45.719Z,26.90
2018-07-17T17:50:14.920Z,26.77
2018-07-17T17:52:43.788Z,26.86
2018-07-17T17:55:13.443Z,26.94
2018-07-17T17:57:42.571Z,27.06
2018-07-17T18:00:11.361Z,26.85
2018-07-17T18:02:40.276Z,26.75
2018-07-17T18:05:09.105Z,26.77
2018-07-17T18:07:37.884Z,26.57
2018-07-17T18:10:06.681Z,26.55
2018-07-17T18:12:35.400Z,26.39
2018-07-17T18:15:04.164Z,26.38
2018-07-17T18:17:32.978Z,26.35
2018-07-17T18:20:01.675Z,26.32
2018-07-17T18:22:30.377Z,26.54
2018-07-17T18:24:59.252Z,26.40
2018-07-17T18:27:28.000Z,26.34
2018-07-17T18:29:56.787Z,26.39
2018-07-17T18:32:25.598Z,26.28
2018-07-17T18:34:54.452Z,26.45
2018-07-17T18:37:23.364Z,26.34
2018-07-17T18:39:52.369Z,26.18
2018-07-17T18:42:21.101Z,26.42
2018-07-17T18:44:49.868Z,26.45
2018-07-17T18:47:18.624Z,26.41
2018-07-17T18:49:48.195Z,26.20
2018-07-17T18:52:17.213Z,26.13
2018-07-17T18:54:45.944Z,26.13
2018-07-17T18:57:14.872Z,26.09
2018-07-17T18:59:44.944Z,26.19
2018-07-17T19:02:14.028Z,26.15
2018-07-17T19:04:43.173Z,26.35
2018-07-17T19:07:12.190Z,26.25
2018-07-17T19:09:40.934Z,26.16
2018-07-17T19:12:09.842Z,26.07
2018-07-17T19:14:38.762Z,26.02
2018-07-17T19:17:07.660Z,26.06
2018-07-17T19:19:36.767Z,26.02
2018-07-17T19:22:05.580Z,25.99
2018-07-17T19:24:34.322Z,25.81
2018-07-17T19:27:03.128Z,25.90
2018-07-17T19:29:31.912Z,25.88
2018-07-17T19:32:00.731Z,25.80
2018-07-17T19:34:29.897Z,25.62
2018-07-17T19:36:59.417Z,25.54
2018-07-17T19:39:28.445Z,25.60
2018-07-17T19:41:57.236Z,25.44
2018-07-17T19:44:26.267Z,25.50
2018-07-17T19:46:55.278Z,25.62
2018-07-17T19:49:24.181Z,25.51
2018-07-17T19:51:52.976Z,25.53
2018-07-17T19:54:21.923Z,25.52
2018-07-17T19:56:50.756Z,25.46
2018-07-17T19:59:20.216Z,25.51
2018-07-17T20:01:49.195Z,25.33
2018-07-17T20:04:18.256Z,25.20
2018-07-17T20:09:51.335Z,25.18
2018-07-17T20:12:20.198Z,25.39
2018-07-17T20:14:48.997Z,25.40
2018-07-17T20:17:17.723Z,25.37
2018-07-17T20:19:46.560Z,25.31
2018-07-17T20:22:15.204Z,25.12
2018-07-17T20:24:44.069Z,25.09
2018-07-17T20:27:12.882Z,25.00
2018-07-17T20:29:41.536Z,24.90
2018-07-17T20:32:10.288Z,24.87
2018-07-17T20:34:39.810Z,24.89
2018-07-17T20:37:09.341Z,24.91
2018-07-17T20:39:38.517Z,24.82
2018-07-17T20:42:07.318Z,24.78
2018-07-17T20:44:36.496Z,24.72
2018-07-17T20:47:05.453Z,24.75
2018-07-17T20:49:34.333Z,24.88
2018-07-17T20:52:03.248Z,24.75
2018-07-17T20:54:32.054Z,24.74
2018-07-17T20:57:01.161Z,24.63
2018-07-17T20:59:30.017Z,24.51
2018-07-17T21:01:58.971Z,24.41
2018-07-17T21:04:27.844Z,24.47
2018-07-17T21:06:57.486Z,24.41
2018-07-17T21:09:26.545Z,24.39
2018-07-17T21:11:55.482Z,24.40
2018-07-17T21:14:24.428Z,24.48
2018-07-17T21:16:53.524Z,24.35
2018-07-17T21:19:22.305Z,24.33
2018-07-17T21:21:51.256Z,24.39
2018-07-17T21:24:20.039Z,24.36
2018-07-17T21:26:48.960Z,24.34
2018-07-17T21:29:17.667Z,24.33
2018-07-17T21:31:46.442Z,24.30
2018-07-17T21:34:15.543Z,24.39
2018-07-17T21:36:44.293Z,24.35
2018-07-17T21:39:13.945Z,24.03
2018-07-17T21:41:42.711Z,24.10
2018-07-17T21:44:11.602Z,24.17
2018-07-17T21:46:40.505Z,24.25
2018-07-17T21:49:09.235Z,24.23
2018-07-17T21:51:37.986Z,24.00
2018-07-17T21:54:07.383Z,24.00
2018-07-17T21:56:36.828Z,24.06
2018-07-17T21:59:06.439Z,23.95
2018-07-17T22:01:35.473Z,23.94
2018-07-17T22:04:04.792Z,23.94
2018-07-17T22:06:34.039Z,23.97
2018-07-17T22:09:03.182Z,23.96
2018-07-17T22:11:32.050Z,23.83
2018-07-17T22:14:00.897Z,23.81
2018-07-17T22:16:29.664Z,23.70
2018-07-17T22:18:58.425Z,23.57
2018-07-17T22:21:27.200Z,23.66
2018-07-17T22:23:55.921Z,23.51
2018-07-17T22:26:24.691Z,23.42
2018-07-17T22:28:53.493Z,23.66
2018-07-17T22:31:23.348Z,23.58
2018-07-17T22:33:52.112Z,23.55
2018-07-17T22:36:20.771Z,23.39
2018-07-17T22:38:49.558Z,23.47
2018-07-17T22:41:18.480Z,23.46
2018-07-17T22:43:47.240Z,23.42
2018-07-17T22:46:16.196Z,23.29
2018-07-17T22:48:45.356Z,23.34
2018-07-17T22:51:14.212Z,23.31
2018-07-17T22:53:43.209Z,23.30
2018-07-17T22:56:12.103Z,23.16
2018-07-17T22:58:40.965Z,23.25
2018-07-17T23:01:09.767Z,23.43
2018-07-17T23:03:38.567Z,23.47
2018-07-17T23:06:07.356Z,23.35
2018-07-17T23:08:36.245Z,23.43
2018-07-17T23:11:05.185Z,23.55
2018-07-17T23:13:34.111Z,23.74
2018-07-17T23:16:03.071Z,23.59
2018-07-17T23:18:31.793Z,23.53
2018-07-17T23:21:00.904Z,23.46
2018-07-17T23:23:29.853Z,23.42
2018-07-17T23:25:58.847Z,23.45
2018-07-17T23:28:27.741Z,23.38
2018-07-17T23:30:56.614Z,23.28
2018-07-17T23:33:25.522Z,23.29
2018-07-17T23:35:54.443Z,23.29
2018-07-17T23:38:23.455Z,23.28
2018-07-17T23:40:52.292Z,23.30
2018-07-17T23:43:21.178Z,23.27
2018-07-17T23:45:49.933Z,23.28
2018-07-17T23:48:18.738Z,23.23
2018-07-17T23:50:47.796Z,23.24
2018-07-17T23:53:16.772Z,23.12
2018-07-17T23:55:45.696Z,23.16
2018-07-17T23:58:14.570Z,23.10
